Kware, Nigeria
Current Conditions -  °F | °C
As of 7:00 PM on Thursday 23 Oct 2014 (Local Time) from DRRN Reporting Station
Sand / Dust Storm Sand / Dust Storm  
Wind Chill: 95°   Ceiling: Unl
Heat Index: 95°   Visibility: 2.8mi
Dew Point: 43°   Wind: 7mph
Humidity: 16%   Direction: 110°ESE
Pressure: 29.83"   Gusts: NA
Location:  13.21°N, 5.27°E
Report Text: DRRN 231800Z 11006KT 4500 DU NSC 35/06 Q1010 NOSIG
Loading
Personal Weather Stations






























Interactive Weather Map
Tropical Storm Tracking
New forecast layout! Learn more

10-Day Weather Forecast

Advertisements
Track Severe Weather on mobile